Map

Track Data

SID SEASON NUMBER BASIN SUBBASIN NAME ISO_TIME NATURE LAT LON WMO_WIND WMO_PRES WMO_AGENCY TRACK_TYPE DIST2LAND LANDFALL IFLAG USA_AGENCY USA_ATCF_ID USA_LAT USA_LON USA_RECORD USA_STATUS USA_WIND USA_PRES USA_SSHS USA_R34_NE USA_R34_SE USA_R34_SW USA_R34_NW USA_R50_NE USA_R50_SE USA_R50_SW USA_R50_NW USA_R64_NE USA_R64_SE USA_R64_SW USA_R64_NW USA_POCI USA_ROCI USA_RMW USA_EYE TOKYO_LAT TOKYO_LON TOKYO_GRADE TOKYO_WIND TOKYO_PRES TOKYO_R50_DIR TOKYO_R50_LONG TOKYO_R50_SHORT TOKYO_R30_DIR TOKYO_R30_LONG TOKYO_R30_SHORT TOKYO_LAND CMA_LAT CMA_LON CMA_CAT CMA_WIND CMA_PRES HKO_LAT HKO_LON HKO_CAT HKO_WIND HKO_PRES NEWDELHI_LAT NEWDELHI_LON NEWDELHI_GRADE NEWDELHI_WIND NEWDELHI_PRES NEWDELHI_CI NEWDELHI_DP NEWDELHI_POCI REUNION_LAT REUNION_LON REUNION_TYPE REUNION_WIND REUNION_PRES REUNION_TNUM REUNION_CI REUNION_RMW REUNION_R34_NE REUNION_R34_SE REUNION_R34_SW REUNION_R34_NW REUNION_R50_NE REUNION_R50_SE REUNION_R50_SW REUNION_R50_NW REUNION_R64_NE REUNION_R64_SE REUNION_R64_SW REUNION_R64_NW BOM_LAT BOM_LON BOM_TYPE BOM_WIND BOM_PRES BOM_TNUM BOM_CI BOM_RMW BOM_R34_NE BOM_R34_SE BOM_R34_SW BOM_R34_NW BOM_R50_NE BOM_R50_SE BOM_R50_SW BOM_R50_NW BOM_R64_NE BOM_R64_SE BOM_R64_SW BOM_R64_NW BOM_ROCI BOM_POCI BOM_EYE BOM_POS_METHOD BOM_PRES_METHOD NADI_LAT NADI_LON NADI_CAT NADI_WIND NADI_PRES WELLINGTON_LAT WELLINGTON_LON WELLINGTON_WIND WELLINGTON_PRES DS824_LAT DS824_LON DS824_STAGE DS824_WIND DS824_PRES TD9636_LAT TD9636_LON TD9636_STAGE TD9636_WIND TD9636_PRES TD9635_LAT TD9635_LON TD9635_WIND TD9635_PRES TD9635_ROCI NEUMANN_LAT NEUMANN_LON NEUMANN_CLASS NEUMANN_WIND NEUMANN_PRES MLC_LAT MLC_LON MLC_CLASS MLC_WIND MLC_PRES USA_GUST BOM_GUST BOM_GUST_PER REUNION_GUST REUNION_GUST_PER USA_SEAHGT USA_SEARAD_NE USA_SEARAD_SE USA_SEARAD_SW USA_SEARAD_NW STORM_SPEED STORM_DIR
1875285N27285 1875 15 NA NA NOT_NAMED 1875-10-12 00:00:00 TS 27.3000 -74.8000 50 hurdat_atl main 402 402 O_____________ hurdat_atl AL061875 27.3000 -74.8000 TS 50 0 7 353
1875285N27285 1875 15 NA NA NOT_NAMED 1875-10-12 03:00:00 TS 27.6425 -74.8475 main 423 423 P_____________ AL061875 27.6425 -74.8475 TS 50 0 7 353
1875285N27285 1875 15 NA NA NOT_NAMED 1875-10-12 06:00:00 TS 28.0000 -74.9000 50 hurdat_atl main 446 446 O_____________ hurdat_atl AL061875 28.0000 -74.9000 TS 50 0 7 353
1875285N27285 1875 15 NA NA NOT_NAMED 1875-10-12 09:00:00 TS 28.3725 -74.9575 main 473 473 P_____________ AL061875 28.3725 -74.9575 TS 50 0 7 353
1875285N27285 1875 15 NA NA NOT_NAMED 1875-10-12 12:00:00 TS 28.7000 -75.0000 50 hurdat_atl main 499 499 O_____________ hurdat_atl AL061875 28.7000 -75.0000 TS 50 0 6 356
1875285N27285 1875 15 NA NA NOT_NAMED 1875-10-12 15:00:00 TS 28.9225 -75.0001 main 517 517 P_____________ AL061875 28.9225 -75.0001 TS 50 0 4 0
1875285N27285 1875 15 NA NA NOT_NAMED 1875-10-12 18:00:00 TS 29.1000 -75.0000 50 hurdat_atl main 536 536 O_____________ hurdat_atl AL061875 29.1000 -75.0000 TS 50 0 4 354
1875285N27285 1875 15 NA NA NOT_NAMED 1875-10-12 21:00:00 TS 29.3000 -75.0499 main 542 532 P_____________ AL061875 29.3000 -75.0499 TS 55 0 4 348
1875285N27285 1875 15 NA NA NOT_NAMED 1875-10-13 00:00:00 TS 29.5000 -75.1000 60 hurdat_atl main 536 536 O_____________ hurdat_atl AL061875 29.5000 -75.1000 TS 60 0 4 352
1875285N27285 1875 15 NA NA NOT_NAMED 1875-10-13 03:00:00 TS 29.7000 -75.1150 main 540 523 P_____________ AL061875 29.7000 -75.1150 TS 60 0 4 0
1875285N27285 1875 15 NA NA NOT_NAMED 1875-10-13 06:00:00 TS 29.9000 -75.1000 60 hurdat_atl main 523 504 O_____________ hurdat_atl AL061875 29.9000 -75.1000 TS 60 0 4 8
1875285N27285 1875 15 NA NA NOT_NAMED 1875-10-13 09:00:00 TS 30.0700 -75.0575 main 504 490 P_____________ AL061875 30.0700 -75.0575 TS 60 0 4 12
1875285N27285 1875 15 NA NA NOT_NAMED 1875-10-13 12:00:00 TS 30.3000 -75.0000 60 hurdat_atl main 490 463 O_____________ hurdat_atl AL061875 30.3000 -75.0000 TS 60 0 6 8
1875285N27285 1875 15 NA NA NOT_NAMED 1875-10-13 15:00:00 TS 30.6700 -74.9500 main 460 426 P_____________ AL061875 30.6700 -74.9500 TS 60 0 8 6
1875285N27285 1875 15 NA NA NOT_NAMED 1875-10-13 18:00:00 TS 31.1000 -74.9000 60 hurdat_atl main 426 386 O_____________ hurdat_atl AL061875 31.1000 -74.9000 TS 60 0 9 5
1875285N27285 1875 15 NA NA NOT_NAMED 1875-10-13 21:00:00 TS 31.5150 -74.8574 main 386 349 P_____________ AL061875 31.5150 -74.8574 TS 65 1 8 6
1875285N27285 1875 15 NA NA NOT_NAMED 1875-10-14 00:00:00 TS 31.9000 -74.8000 70 hurdat_atl main 349 324 O_____________ hurdat_atl AL061875 31.9000 -74.8000 HU 70 1 7 11
1875285N27285 1875 15 NA NA NOT_NAMED 1875-10-14 03:00:00 TS 32.2000 -74.7000 main 324 301 P_____________ AL061875 32.2000 -74.7000 HU 70 1 6 16
1875285N27285 1875 15 NA NA NOT_NAMED 1875-10-14 06:00:00 TS 32.5000 -74.6000 70 hurdat_atl main 301 274 O_____________ hurdat_atl AL061875 32.5000 -74.6000 HU 70 1 7 10
1875285N27285 1875 15 NA NA NOT_NAMED 1875-10-14 09:00:00 TS 32.8549 -74.5644 main 266 241 P_____________ AL061875 32.8549 -74.5644 HU 70 1 8 6
1875285N27285 1875 15 NA NA NOT_NAMED 1875-10-14 12:00:00 TS 33.3000 -74.5000 70 hurdat_atl main 241 212 O_____________ hurdat_atl AL061875 33.3000 -74.5000 HU 70 1 11 11
1875285N27285 1875 15 NA NA NOT_NAMED 1875-10-14 15:00:00 TS 33.8925 -74.3303 main 214 190 P_____________ AL061875 33.8925 -74.3303 HU 70 1 12 15
1875285N27285 1875 15 NA NA NOT_NAMED 1875-10-14 18:00:00 TS 34.5000 -74.1000 70 hurdat_atl main 190 175 O_____________ hurdat_atl AL061875 34.5000 -74.1000 HU 70 1 11 20
1875285N27285 1875 15 NA NA NOT_NAMED 1875-10-14 21:00:00 TS 34.9650 -73.8571 main 169 169 P_____________ AL061875 34.9650 -73.8571 HU 65 1 10 24
1875285N27285 1875 15 NA NA NOT_NAMED 1875-10-15 00:00:00 TS 35.4000 -73.6000 60 hurdat_atl main 177 174 O_____________ hurdat_atl AL061875 35.4000 -73.6000 TS 60 0 10 23
1875285N27285 1875 15 NA NA NOT_NAMED 1875-10-15 03:00:00 TS 35.8848 -73.3717 main 189 189 P_____________ AL061875 35.8848 -73.3717 TS 60 0 11 22
1875285N27285 1875 15 NA NA NOT_NAMED 1875-10-15 06:00:00 TS 36.4000 -73.1000 60 hurdat_atl main 225 225 O_____________ hurdat_atl AL061875 36.4000 -73.1000 TS 60 0 11 27
1875285N27285 1875 15 NA NA NOT_NAMED 1875-10-15 09:00:00 TS 36.8597 -72.7571 main 255 255 P_____________ AL061875 36.8597 -72.7571 TS 60 0 13 30
1875285N27285 1875 15 NA NA NOT_NAMED 1875-10-15 12:00:00 TS 37.5000 -72.3000 60 hurdat_atl main 260 246 O_____________ hurdat_atl AL061875 37.5000 -72.3000 TS 60 0 18 26
1875285N27285 1875 15 NA NA NOT_NAMED 1875-10-15 15:00:00 TS 38.4935 -71.7731 main 242 184 P_____________ AL061875 38.4935 -71.7731 TS 60 0 24 25
1875285N27285 1875 15 NA NA NOT_NAMED 1875-10-15 18:00:00 TS 39.7000 -71.0000 60 hurdat_atl main 182 88 O_____________ hurdat_atl AL061875 39.7000 -71.0000 TS 60 0 29 31
1875285N27285 1875 15 NA NA NOT_NAMED 1875-10-15 21:00:00 TS 40.9499 -69.8776 main 88 59 P_____________ AL061875 40.9499 -69.8776 TS 55 0 31 37
1875285N27285 1875 15 NA NA NOT_NAMED 1875-10-16 00:00:00 TS 42.2000 -68.5000 50 hurdat_atl main 131 91 O_____________ hurdat_atl AL061875 42.2000 -68.5000 TS 50 0 32 41
1875285N27285 1875 15 NA NA NOT_NAMED 1875-10-16 03:00:00 TS 43.3510 -67.0563 main 84 0 P_____________ AL061875 43.3510 -67.0563 TS 50 0 31 45
1875285N27285 1875 15 NA NA NOT_NAMED 1875-10-16 06:00:00 TS 44.4000 -65.5000 50 hurdat_atl main 0 0 O_____________ hurdat_atl AL061875 44.4000 -65.5000 TS 50 0 30 49
1875285N27285 1875 15 NA NA NOT_NAMED 1875-10-16 09:00:00 TS 45.3288 -63.8589 main 7 0 P_____________ AL061875 45.3288 -63.8589 TS 45 0 29 52
1875285N27285 1875 15 NA NA NOT_NAMED 1875-10-16 12:00:00 ET 46.2000 -62.2000 40 hurdat_atl main 11 11 O_____________ hurdat_atl AL061875 46.2000 -62.2000 EX 40 -4 29 52
1875285N27285 1875 15 NA NA NOT_NAMED 1875-10-16 15:00:00 ET 47.0936 -60.5940 main 22 0 P_____________ AL061875 47.0936 -60.5940 EX 40 -4 28 50
1875285N27285 1875 15 NA NA NOT_NAMED 1875-10-16 18:00:00 ET 48.0000 -59.0000 40 hurdat_atl main 0 O_____________ hurdat_atl AL061875 48.0000 -59.0000 EX 40 -4 28 50

About IBTrACS Database

This database is a web-friendly format of International Best Track Archive for Climate Stewardship (IBTrACS), a global best track data archive curated by NOAA dating back to 1842.

Updated: 2021-11-26